createdAt,value
2023-03-22T00:00:21.094Z,9.63
2023-03-22T00:04:28.454Z,8.50
2023-03-22T00:08:33.508Z,9.25
2023-03-22T00:12:35.837Z,9.15
2023-03-22T00:16:38.063Z,11.25
2023-03-22T00:20:47.738Z,10.45
2023-03-22T00:24:51.379Z,11.02
2023-03-22T00:28:53.650Z,9.27
2023-03-22T00:32:56.595Z,8.00
2023-03-22T00:36:59.385Z,7.90
2023-03-22T00:41:21.429Z,9.45
2023-03-22T00:45:23.698Z,7.70
2023-03-22T00:49:27.286Z,9.02
2023-03-22T00:53:29.656Z,8.97
2023-03-22T00:57:32.063Z,9.63
2023-03-22T01:01:34.515Z,9.85
2023-03-22T01:05:37.874Z,9.80
2023-03-22T01:09:40.682Z,9.05
2023-03-22T01:13:43.142Z,10.45
2023-03-22T01:17:45.382Z,9.15
2023-03-22T01:21:47.791Z,12.23
2023-03-22T01:25:50.958Z,11.20
2023-03-22T01:29:53.538Z,13.02
2023-03-22T01:33:56.383Z,13.27
2023-03-22T01:37:59.245Z,8.25
2023-03-22T01:42:03.485Z,10.32
2023-03-22T01:50:09.419Z,6.90
2023-03-22T01:54:18.702Z,7.00
2023-03-22T01:58:21.773Z,7.32
2023-03-22T02:02:36.767Z,4.90
2023-03-22T02:06:58.217Z,5.32
2023-03-22T02:11:05.236Z,5.53
2023-03-22T02:15:20.968Z,5.70
2023-03-22T02:20:18.429Z,5.65
2023-03-22T02:24:46.213Z,6.70
2023-03-22T02:28:51.674Z,6.40
2023-03-22T02:33:25.184Z,6.22
2023-03-22T02:37:50.749Z,7.95
2023-03-22T02:42:02.214Z,6.28
2023-03-22T02:46:23.789Z,10.07
2023-03-22T02:50:38.517Z,8.25
2023-03-22T02:54:49.961Z,6.95
2023-03-22T02:58:58.014Z,7.20
2023-03-22T03:03:11.699Z,8.80
2023-03-22T03:07:25.150Z,9.07
2023-03-22T03:11:39.740Z,7.43
2023-03-22T03:15:46.559Z,7.28
2023-03-22T03:20:08.892Z,6.18
2023-03-22T03:24:28.776Z,8.10
2023-03-22T03:28:53.014Z,6.57
2023-03-22T03:33:04.937Z,8.50
2023-03-22T03:37:14.259Z,8.43
2023-03-22T03:41:20.794Z,7.13
2023-03-22T03:45:26.942Z,8.88
2023-03-22T03:49:29.429Z,6.40
2023-03-22T03:53:31.783Z,7.75
2023-03-22T03:57:34.060Z,6.00
2023-03-22T04:01:36.533Z,6.30
2023-03-22T04:05:48.494Z,7.68
2023-03-22T04:09:51.005Z,9.07
2023-03-22T04:14:06.702Z,6.78
2023-03-22T04:18:11.877Z,5.38
2023-03-22T04:22:18.580Z,7.28
2023-03-22T04:26:22.748Z,4.90
2023-03-22T04:30:42.080Z,6.53
2023-03-22T04:35:03.892Z,6.60
2023-03-22T04:39:08.920Z,7.68
2023-03-22T04:43:13.753Z,5.68
2023-03-22T04:47:28.075Z,6.03
2023-03-22T04:51:32.835Z,6.47
2023-03-22T04:55:58.473Z,7.95
2023-03-22T05:00:06.297Z,9.00
2023-03-22T05:04:09.437Z,5.57
2023-03-22T05:08:14.443Z,9.03
2023-03-22T05:12:21.699Z,7.57
2023-03-22T05:16:34.082Z,9.48
2023-03-22T05:20:39.116Z,5.88
2023-03-22T05:24:47.611Z,8.25
2023-03-22T05:28:57.049Z,7.63
2023-03-22T05:33:06.503Z,9.18
2023-03-22T05:37:17.391Z,7.25
2023-03-22T05:41:36.410Z,9.88
2023-03-22T05:45:39.715Z,8.68
2023-03-22T05:49:58.561Z,7.53
2023-03-22T05:54:01.976Z,8.00
2023-03-22T05:58:11.384Z,8.50
2023-03-22T06:02:16.609Z,9.63
2023-03-22T06:06:19.323Z,9.90
2023-03-22T06:10:32.954Z,8.13
2023-03-22T06:19:19.740Z,7.67
2023-03-22T06:23:22.415Z,5.97
2023-03-22T06:27:24.747Z,6.35
2023-03-22T06:31:27.354Z,7.47
2023-03-22T06:35:34.009Z,8.05
2023-03-22T06:39:36.564Z,8.40
2023-03-22T06:43:38.850Z,8.25
2023-03-22T06:47:50.723Z,7.68
2023-03-22T06:52:28.058Z,6.32
2023-03-22T06:56:32.192Z,8.38
2023-03-22T07:00:36.642Z,7.90
2023-03-22T07:04:40.983Z,5.07
2023-03-22T07:08:43.074Z,6.50
2023-03-22T07:12:47.876Z,6.97
2023-03-22T07:16:52.077Z,7.03
2023-03-22T07:20:56.322Z,8.73
2023-03-22T07:25:01.271Z,8.73
2023-03-22T07:29:06.400Z,8.77
2023-03-22T07:33:11.350Z,8.85
2023-03-22T07:37:15.482Z,5.90
2023-03-22T07:41:18.566Z,7.15
2023-03-22T07:45:41.419Z,7.72
2023-03-22T07:50:17.711Z,8.90
2023-03-22T07:54:33.572Z,9.43
2023-03-22T07:58:38.345Z,8.65
2023-03-22T08:02:40.657Z,12.52
2023-03-22T08:06:42.922Z,14.02
2023-03-22T08:10:50.792Z,12.55
2023-03-22T08:14:53.408Z,19.83
2023-03-22T08:19:00.238Z,22.02
2023-03-22T08:23:04.045Z,20.92
2023-03-22T08:27:32.238Z,14.77
2023-03-22T08:31:35.736Z,12.27
2023-03-22T08:35:40.182Z,15.05
2023-03-22T08:39:44.285Z,13.35
2023-03-22T08:44:02.009Z,15.57
2023-03-22T08:48:06.034Z,11.43
2023-03-22T08:56:38.298Z,10.07
2023-03-22T09:00:57.401Z,10.02
2023-03-22T09:05:15.702Z,10.63
2023-03-22T09:09:18.495Z,12.52
2023-03-22T09:13:24.558Z,10.23
2023-03-22T09:17:31.522Z,9.80
2023-03-22T09:21:33.866Z,11.98
2023-03-22T09:25:52.160Z,8.00
2023-03-22T09:29:58.440Z,6.28
2023-03-22T09:34:01.022Z,8.82
2023-03-22T09:38:06.185Z,9.32
2023-03-22T09:42:30.750Z,10.48
2023-03-22T09:46:40.940Z,10.25
2023-03-22T09:50:49.468Z,8.32
2023-03-22T09:54:53.146Z,9.68
2023-03-22T09:59:04.889Z,12.63
2023-03-22T10:03:20.050Z,9.52
2023-03-22T10:07:31.000Z,10.00
2023-03-22T10:11:55.918Z,11.05
2023-03-22T10:16:02.386Z,10.70
2023-03-22T10:20:11.681Z,11.10
2023-03-22T10:24:18.512Z,10.85
2023-03-22T10:28:43.091Z,13.23
2023-03-22T10:37:04.209Z,12.48
2023-03-22T10:41:07.157Z,11.73
2023-03-22T10:45:14.271Z,12.35
2023-03-22T10:49:26.352Z,10.25
2023-03-22T10:53:44.303Z,10.07
2023-03-22T10:58:16.108Z,8.50
2023-03-22T11:02:30.608Z,12.18
2023-03-22T11:06:38.152Z,14.43
2023-03-22T11:10:40.299Z,11.50
2023-03-22T11:14:45.816Z,8.32
2023-03-22T11:18:48.076Z,9.77
2023-03-22T11:22:51.322Z,4.57
2023-03-22T11:27:03.148Z,5.50
2023-03-22T11:31:11.616Z,5.45
2023-03-22T11:35:24.337Z,7.15
2023-03-22T11:39:28.821Z,5.15
2023-03-22T11:43:44.149Z,4.47
2023-03-22T11:47:46.575Z,4.20
2023-03-22T11:51:49.196Z,3.92
2023-03-22T11:55:54.084Z,5.07
2023-03-22T12:00:30.907Z,4.60
2023-03-22T12:04:38.410Z,5.85
2023-03-22T12:08:45.023Z,3.00
2023-03-22T12:12:53.433Z,3.50
2023-03-22T12:17:08.504Z,3.58
2023-03-22T12:21:13.902Z,5.53
2023-03-22T12:25:18.568Z,5.90
2023-03-22T12:29:21.804Z,6.45
2023-03-22T12:33:46.830Z,4.03
2023-03-22T12:37:54.295Z,6.28
2023-03-22T12:42:02.708Z,3.95
2023-03-22T12:46:06.563Z,7.60
2023-03-22T12:50:20.732Z,3.72
2023-03-22T12:54:25.754Z,3.25
2023-03-22T12:58:28.204Z,4.25
2023-03-22T13:02:34.618Z,2.45
2023-03-22T13:06:44.229Z,3.75
2023-03-22T13:11:04.594Z,2.70
2023-03-22T13:15:41.322Z,3.95
2023-03-22T13:19:53.630Z,1.90
2023-03-22T13:24:15.698Z,2.30
2023-03-22T13:28:29.694Z,2.28
2023-03-22T13:32:33.912Z,4.85
2023-03-22T13:36:37.535Z,1.70
2023-03-22T13:40:46.274Z,2.17
2023-03-22T13:45:03.692Z,7.50
2023-03-22T13:49:31.582Z,1.30
2023-03-22T13:53:36.778Z,1.83
2023-03-22T13:57:59.497Z,1.77
2023-03-22T14:02:33.835Z,3.35
2023-03-22T14:06:48.081Z,4.78
2023-03-22T14:11:01.558Z,3.30
2023-03-22T14:15:06.943Z,2.10
2023-03-22T14:19:17.359Z,2.63
